Elizabeth, NJ

6:25 AM EDT en Marzo 23, 2017 (GMT -0400)
W. Grand Street, Elizabeth | | Change Station

Alt 33 ft 40.67 °N, 74.23 °W | Updated 9 minutes ago

Clear
Despejado
22.1 ° F
Sensación térmica 16 ° F
N
4.9
Viento Variable Viento desde NNO
Gusts 11.0 mph

Hoy
Alta -- | Baja -- ° F
--% Posibilidad de precipitaciones
Ayer
Alta -- | Baja -- ° F
Precip. -- pul
Presión 30.54 pul
Visibilidad 10.0 Millas
Nubes Despejado
Vientos helados 16 ° F
Punto de rocío 7 ° F
Humedad 51%
Precipitaciones 0.00 pul
Espesor de la nieve No disponible.
6:54 AM 7:12 PM
Creciente menguante, 24% visible
METAR KEWR 230951Z 28007KT 260V330 10SM CLR M05/M14 A3054 RMK AO2 SLP340 T10501144
Presión 30.54 pul
Visibilidad 10.0 Millas
Nubes Despejado
Vientos helados 16 ° F
Punto de rocío 7 ° F
Humedad 51%
Precipitaciones 0.00 pul
Espesor de la nieve No disponible.
6:54 AM 7:12 PM
Creciente menguante, 24% visible
METAR KEWR 230951Z 28007KT 260V330 10SM CLR M05/M14 A3054 RMK AO2 SLP340 T10501144

Get Severe Weather Alerts

Thanks for signing up!

Be on the lookout for a verification email in your inbox.

You'll start receiving the daily forecast at 8 AM.

×

10-Day Weather Forecast

Almanac

Astronomía

Mar. 23, 2017 Salida Puesta
Hora real
Crepúsculo civil
Crepúsculo náutico
Crepúsculo astronómico
Luna
Horas de luz
Horas de luz
Tomorrow will be .
, % of the Moon is Illuminated

Extremos de hoy

Máximos del estado Bajos del estado

Community

WunderPhotos

Upload Photos

1,962,540 ¡fotos cargadas!

WunderBlog® & News

Nearby

Calidad del aire

  Calidad del aire Índice AQ Contaminante
Not available.

Grosos de nieve

Estación Profundido Altura

Actividad de terremotos

Ciudad Distance Mag. Tiempo y dato
Magnitud mínima muestra es 2,5.

Actividad de terremotos

Ciudad Distance Mag. Tiempo y dato
Magnitud mínima muestra es 2,5.

Temperaturas de aguas costeras

Lugar Temperatura

Stations

Estaciones meteorológicas cercanas

Ubicación de la estación Temp. Vientos helados Punto de rocío Humedad Viento Precip. Alt Actualizado Tipo
                   

Watches & Warnings

There are currently no watches in effect.